sensor_id;sensor_type;location;lat;lon;timestamp;P1;durP1;ratioP1;P2;durP2;ratioP2
15142;SDS011;7672;50.834;6.286;2022-10-16T00:01:35;2.30;;;2.10;;
15142;SDS011;7672;50.834;6.286;2022-10-16T00:04:03;1.70;;;1.60;;
15142;SDS011;7672;50.834;6.286;2022-10-16T00:06:30;5.07;;;2.03;;
15142;SDS011;7672;50.834;6.286;2022-10-16T00:08:58;3.33;;;2.00;;
15142;SDS011;7672;50.834;6.286;2022-10-16T00:11:26;2.33;;;1.80;;
15142;SDS011;7672;50.834;6.286;2022-10-16T00:14:06;2.13;;;1.93;;
15142;SDS011;7672;50.834;6.286;2022-10-16T00:16:37;3.50;;;1.80;;
15142;SDS011;7672;50.834;6.286;2022-10-16T00:19:04;2.07;;;1.57;;
15142;SDS011;7672;50.834;6.286;2022-10-16T00:21:31;2.53;;;1.40;;
15142;SDS011;7672;50.834;6.286;2022-10-16T00:24:01;2.43;;;1.13;;
15142;SDS011;7672;50.834;6.286;2022-10-16T00:26:32;4.43;;;1.20;;
15142;SDS011;7672;50.834;6.286;2022-10-16T00:29:02;5.27;;;1.30;;
15142;SDS011;7672;50.834;6.286;2022-10-16T00:31:30;3.67;;;1.40;;
15142;SDS011;7672;50.834;6.286;2022-10-16T00:33:57;1.83;;;1.23;;
15142;SDS011;7672;50.834;6.286;2022-10-16T00:36:24;2.33;;;1.40;;
15142;SDS011;7672;50.834;6.286;2022-10-16T00:38:53;1.20;;;1.17;;
15142;SDS011;7672;50.834;6.286;2022-10-16T00:41:24;1.13;;;1.10;;
15142;SDS011;7672;50.834;6.286;2022-10-16T00:43:53;1.23;;;1.17;;
15142;SDS011;7672;50.834;6.286;2022-10-16T00:46:46;1.43;;;1.33;;
15142;SDS011;7672;50.834;6.286;2022-10-16T00:49:15;1.97;;;1.77;;
15142;SDS011;7672;50.834;6.286;2022-10-16T00:51:46;4.03;;;1.90;;
15142;SDS011;7672;50.834;6.286;2022-10-16T00:54:19;5.80;;;2.73;;
15142;SDS011;7672;50.834;6.286;2022-10-16T00:56:51;5.33;;;2.33;;
15142;SDS011;7672;50.834;6.286;2022-10-16T01:01:52;4.73;;;3.93;;
15142;SDS011;7672;50.834;6.286;2022-10-16T01:04:21;4.50;;;2.67;;
15142;SDS011;7672;50.834;6.286;2022-10-16T01:09:47;3.93;;;2.00;;
15142;SDS011;7672;50.834;6.286;2022-10-16T01:12:58;3.43;;;2.03;;
15142;SDS011;7672;50.834;6.286;2022-10-16T01:18:31;2.50;;;1.70;;
15142;SDS011;7672;50.834;6.286;2022-10-16T01:21:08;2.77;;;2.03;;
15142;SDS011;7672;50.834;6.286;2022-10-16T01:26:56;3.93;;;1.60;;
15142;SDS011;7672;50.834;6.286;2022-10-16T01:32:36;2.43;;;1.40;;
15142;SDS011;7672;50.834;6.286;2022-10-16T01:37:51;1.13;;;1.10;;
15142;SDS011;7672;50.834;6.286;2022-10-16T01:40:29;1.43;;;1.03;;
15142;SDS011;7672;50.834;6.286;2022-10-16T01:43:02;0.80;;;0.80;;
15142;SDS011;7672;50.834;6.286;2022-10-16T01:45:34;0.87;;;0.87;;
15142;SDS011;7672;50.834;6.286;2022-10-16T01:48:02;1.73;;;0.93;;
15142;SDS011;7672;50.834;6.286;2022-10-16T01:50:35;3.90;;;0.80;;
15142;SDS011;7672;50.834;6.286;2022-10-16T01:53:08;0.53;;;0.53;;
15142;SDS011;7672;50.834;6.286;2022-10-16T01:55:40;1.60;;;1.00;;
15142;SDS011;7672;50.834;6.286;2022-10-16T01:58:14;0.80;;;0.80;;
15142;SDS011;7672;50.834;6.286;2022-10-16T02:00:43;1.00;;;0.90;;
15142;SDS011;7672;50.834;6.286;2022-10-16T02:03:14;0.60;;;0.60;;
15142;SDS011;7672;50.834;6.286;2022-10-16T02:08:17;1.83;;;0.80;;
15142;SDS011;7672;50.834;6.286;2022-10-16T02:10:46;3.77;;;1.57;;
15142;SDS011;7672;50.834;6.286;2022-10-16T02:13:15;0.70;;;0.70;;
15142;SDS011;7672;50.834;6.286;2022-10-16T02:15:49;0.70;;;0.70;;
15142;SDS011;7672;50.834;6.286;2022-10-16T02:18:16;2.17;;;0.90;;
15142;SDS011;7672;50.834;6.286;2022-10-16T02:20:46;0.80;;;0.77;;
15142;SDS011;7672;50.834;6.286;2022-10-16T02:23:24;3.50;;;1.17;;
15142;SDS011;7672;50.834;6.286;2022-10-16T02:26:28;1.60;;;0.73;;
15142;SDS011;7672;50.834;6.286;2022-10-16T02:29:17;0.97;;;0.90;;
15142;SDS011;7672;50.834;6.286;2022-10-16T02:31:51;2.83;;;1.13;;
15142;SDS011;7672;50.834;6.286;2022-10-16T02:34:25;0.80;;;0.80;;
15142;SDS011;7672;50.834;6.286;2022-10-16T02:36:54;2.70;;;1.10;;
15142;SDS011;7672;50.834;6.286;2022-10-16T02:39:24;1.13;;;1.03;;
15142;SDS011;7672;50.834;6.286;2022-10-16T02:41:53;2.87;;;0.90;;
15142;SDS011;7672;50.834;6.286;2022-10-16T02:44:20;0.90;;;0.90;;
15142;SDS011;7672;50.834;6.286;2022-10-16T02:46:47;0.70;;;0.70;;
15142;SDS011;7672;50.834;6.286;2022-10-16T02:49:14;2.90;;;0.90;;
15142;SDS011;7672;50.834;6.286;2022-10-16T02:51:41;2.03;;;1.07;;
15142;SDS011;7672;50.834;6.286;2022-10-16T02:54:08;4.07;;;0.90;;
15142;SDS011;7672;50.834;6.286;2022-10-16T02:56:34;1.20;;;0.90;;
15142;SDS011;7672;50.834;6.286;2022-10-16T02:59:01;1.13;;;1.03;;
15142;SDS011;7672;50.834;6.286;2022-10-16T03:01:28;1.60;;;1.10;;
15142;SDS011;7672;50.834;6.286;2022-10-16T03:03:55;1.17;;;1.07;;
15142;SDS011;7672;50.834;6.286;2022-10-16T03:06:22;1.20;;;1.10;;
15142;SDS011;7672;50.834;6.286;2022-10-16T03:08:49;1.20;;;1.10;;
15142;SDS011;7672;50.834;6.286;2022-10-16T03:11:16;1.20;;;1.10;;
15142;SDS011;7672;50.834;6.286;2022-10-16T03:13:43;1.10;;;0.93;;
15142;SDS011;7672;50.834;6.286;2022-10-16T03:16:10;1.30;;;1.20;;
15142;SDS011;7672;50.834;6.286;2022-10-16T03:18:36;1.00;;;1.00;;
15142;SDS011;7672;50.834;6.286;2022-10-16T03:21:03;1.27;;;1.17;;
15142;SDS011;7672;50.834;6.286;2022-10-16T03:23:30;1.60;;;1.00;;
15142;SDS011;7672;50.834;6.286;2022-10-16T03:25:57;1.23;;;1.13;;
15142;SDS011;7672;50.834;6.286;2022-10-16T03:28:24;1.30;;;1.20;;
15142;SDS011;7672;50.834;6.286;2022-10-16T03:30:50;2.97;;;1.10;;
15142;SDS011;7672;50.834;6.286;2022-10-16T03:33:17;1.20;;;1.17;;
15142;SDS011;7672;50.834;6.286;2022-10-16T03:35:50;1.47;;;1.37;;
15142;SDS011;7672;50.834;6.286;2022-10-16T03:38:21;1.70;;;1.20;;
15142;SDS011;7672;50.834;6.286;2022-10-16T03:40:48;1.87;;;1.13;;
15142;SDS011;7672;50.834;6.286;2022-10-16T03:43:15;2.03;;;1.43;;
15142;SDS011;7672;50.834;6.286;2022-10-16T03:45:42;2.83;;;1.63;;
15142;SDS011;7672;50.834;6.286;2022-10-16T03:48:09;2.00;;;1.67;;
15142;SDS011;7672;50.834;6.286;2022-10-16T03:50:36;1.57;;;1.40;;
15142;SDS011;7672;50.834;6.286;2022-10-16T03:53:03;1.47;;;1.37;;
15142;SDS011;7672;50.834;6.286;2022-10-16T03:55:30;1.20;;;1.10;;
15142;SDS011;7672;50.834;6.286;2022-10-16T03:57:57;2.57;;;1.60;;
15142;SDS011;7672;50.834;6.286;2022-10-16T04:00:23;1.57;;;1.37;;
15142;SDS011;7672;50.834;6.286;2022-10-16T04:02:50;5.10;;;1.53;;
15142;SDS011;7672;50.834;6.286;2022-10-16T04:05:17;1.00;;;1.00;;
15142;SDS011;7672;50.834;6.286;2022-10-16T04:07:44;1.53;;;1.00;;
15142;SDS011;7672;50.834;6.286;2022-10-16T04:10:11;2.13;;;1.23;;
15142;SDS011;7672;50.834;6.286;2022-10-16T04:12:37;1.43;;;1.10;;
15142;SDS011;7672;50.834;6.286;2022-10-16T04:15:04;1.77;;;1.20;;
15142;SDS011;7672;50.834;6.286;2022-10-16T04:17:31;3.70;;;1.30;;
15142;SDS011;7672;50.834;6.286;2022-10-16T04:19:58;1.30;;;1.23;;
15142;SDS011;7672;50.834;6.286;2022-10-16T04:22:25;5.03;;;1.50;;
15142;SDS011;7672;50.834;6.286;2022-10-16T04:24:52;1.30;;;1.20;;
15142;SDS011;7672;50.834;6.286;2022-10-16T04:27:19;1.33;;;1.00;;
15142;SDS011;7672;50.834;6.286;2022-10-16T04:29:46;2.83;;;1.27;;
15142;SDS011;7672;50.834;6.286;2022-10-16T04:32:12;2.40;;;1.30;;
15142;SDS011;7672;50.834;6.286;2022-10-16T04:34:39;1.50;;;1.13;;
15142;SDS011;7672;50.834;6.286;2022-10-16T04:37:06;1.10;;;1.00;;
15142;SDS011;7672;50.834;6.286;2022-10-16T04:39:33;5.03;;;1.33;;
15142;SDS011;7672;50.834;6.286;2022-10-16T04:42:00;1.87;;;1.30;;
15142;SDS011;7672;50.834;6.286;2022-10-16T04:44:27;1.53;;;1.40;;
15142;SDS011;7672;50.834;6.286;2022-10-16T04:46:53;1.20;;;1.20;;
15142;SDS011;7672;50.834;6.286;2022-10-16T04:49:20;1.63;;;1.20;;
15142;SDS011;7672;50.834;6.286;2022-10-16T04:51:47;1.90;;;1.40;;
15142;SDS011;7672;50.834;6.286;2022-10-16T04:54:14;1.70;;;1.40;;
15142;SDS011;7672;50.834;6.286;2022-10-16T04:56:41;1.70;;;1.60;;
15142;SDS011;7672;50.834;6.286;2022-10-16T04:59:14;2.00;;;1.50;;
15142;SDS011;7672;50.834;6.286;2022-10-16T05:01:41;1.23;;;1.10;;
15142;SDS011;7672;50.834;6.286;2022-10-16T05:04:08;4.40;;;2.10;;
15142;SDS011;7672;50.834;6.286;2022-10-16T05:06:35;6.80;;;2.70;;
15142;SDS011;7672;50.834;6.286;2022-10-16T05:09:04;2.00;;;1.73;;
15142;SDS011;7672;50.834;6.286;2022-10-16T05:11:31;1.70;;;1.60;;
15142;SDS011;7672;50.834;6.286;2022-10-16T05:13:59;2.80;;;2.07;;
15142;SDS011;7672;50.834;6.286;2022-10-16T05:16:27;3.27;;;1.67;;
15142;SDS011;7672;50.834;6.286;2022-10-16T05:18:54;1.40;;;1.30;;
15142;SDS011;7672;50.834;6.286;2022-10-16T05:21:29;1.43;;;1.33;;
15142;SDS011;7672;50.834;6.286;2022-10-16T05:23:56;3.37;;;1.37;;
15142;SDS011;7672;50.834;6.286;2022-10-16T05:26:22;2.03;;;1.73;;
15142;SDS011;7672;50.834;6.286;2022-10-16T05:28:49;3.23;;;1.40;;
15142;SDS011;7672;50.834;6.286;2022-10-16T05:31:17;1.77;;;1.53;;
15142;SDS011;7672;50.834;6.286;2022-10-16T05:33:43;2.47;;;2.23;;
15142;SDS011;7672;50.834;6.286;2022-10-16T05:36:10;3.00;;;1.30;;
15142;SDS011;7672;50.834;6.286;2022-10-16T05:38:37;1.77;;;1.50;;
15142;SDS011;7672;50.834;6.286;2022-10-16T05:41:05;3.03;;;1.30;;
15142;SDS011;7672;50.834;6.286;2022-10-16T05:43:32;1.87;;;1.40;;
15142;SDS011;7672;50.834;6.286;2022-10-16T05:46:03;1.60;;;1.50;;
15142;SDS011;7672;50.834;6.286;2022-10-16T05:48:32;1.43;;;1.33;;
15142;SDS011;7672;50.834;6.286;2022-10-16T05:51:10;2.53;;;1.43;;
15142;SDS011;7672;50.834;6.286;2022-10-16T05:53:40;1.70;;;1.60;;
15142;SDS011;7672;50.834;6.286;2022-10-16T05:56:08;1.50;;;1.40;;
15142;SDS011;7672;50.834;6.286;2022-10-16T05:58:37;1.77;;;1.40;;
15142;SDS011;7672;50.834;6.286;2022-10-16T06:01:10;4.37;;;1.87;;
15142;SDS011;7672;50.834;6.286;2022-10-16T06:03:40;2.40;;;1.60;;
15142;SDS011;7672;50.834;6.286;2022-10-16T06:06:11;4.33;;;1.50;;
15142;SDS011;7672;50.834;6.286;2022-10-16T06:08:44;3.57;;;1.43;;
15142;SDS011;7672;50.834;6.286;2022-10-16T06:11:13;2.00;;;1.73;;
15142;SDS011;7672;50.834;6.286;2022-10-16T06:13:43;1.90;;;1.60;;
15142;SDS011;7672;50.834;6.286;2022-10-16T06:16:12;1.80;;;1.70;;
15142;SDS011;7672;50.834;6.286;2022-10-16T06:18:39;2.00;;;1.73;;
15142;SDS011;7672;50.834;6.286;2022-10-16T06:21:09;3.73;;;2.20;;
15142;SDS011;7672;50.834;6.286;2022-10-16T06:23:43;2.13;;;1.93;;
15142;SDS011;7672;50.834;6.286;2022-10-16T06:26:18;2.73;;;2.17;;
15142;SDS011;7672;50.834;6.286;2022-10-16T06:28:47;5.87;;;2.13;;
15142;SDS011;7672;50.834;6.286;2022-10-16T06:31:14;7.90;;;2.87;;
15142;SDS011;7672;50.834;6.286;2022-10-16T06:33:42;5.63;;;4.13;;
15142;SDS011;7672;50.834;6.286;2022-10-16T06:36:12;6.87;;;4.87;;
15142;SDS011;7672;50.834;6.286;2022-10-16T06:38:41;4.00;;;3.70;;
15142;SDS011;7672;50.834;6.286;2022-10-16T06:41:09;7.93;;;3.93;;
15142;SDS011;7672;50.834;6.286;2022-10-16T06:43:41;4.63;;;3.37;;
15142;SDS011;7672;50.834;6.286;2022-10-16T06:46:09;2.60;;;2.40;;
15142;SDS011;7672;50.834;6.286;2022-10-16T06:48:38;2.87;;;2.10;;
15142;SDS011;7672;50.834;6.286;2022-10-16T06:51:08;3.37;;;2.23;;
15142;SDS011;7672;50.834;6.286;2022-10-16T06:53:47;4.53;;;3.00;;
15142;SDS011;7672;50.834;6.286;2022-10-16T06:56:29;3.40;;;2.43;;
15142;SDS011;7672;50.834;6.286;2022-10-16T06:58:59;4.80;;;2.33;;
15142;SDS011;7672;50.834;6.286;2022-10-16T07:01:27;3.30;;;1.90;;
15142;SDS011;7672;50.834;6.286;2022-10-16T07:03:54;2.27;;;2.00;;
15142;SDS011;7672;50.834;6.286;2022-10-16T07:06:22;3.63;;;1.90;;
15142;SDS011;7672;50.834;6.286;2022-10-16T07:08:51;2.33;;;2.00;;
15142;SDS011;7672;50.834;6.286;2022-10-16T07:11:19;1.93;;;1.73;;
15142;SDS011;7672;50.834;6.286;2022-10-16T07:13:48;1.90;;;1.70;;
15142;SDS011;7672;50.834;6.286;2022-10-16T07:16:25;1.60;;;1.50;;
15142;SDS011;7672;50.834;6.286;2022-10-16T07:18:54;2.00;;;1.50;;
15142;SDS011;7672;50.834;6.286;2022-10-16T07:21:27;4.83;;;2.57;;
15142;SDS011;7672;50.834;6.286;2022-10-16T07:24:01;1.77;;;1.60;;
15142;SDS011;7672;50.834;6.286;2022-10-16T07:26:30;1.83;;;1.50;;
15142;SDS011;7672;50.834;6.286;2022-10-16T07:28:59;3.83;;;1.63;;
15142;SDS011;7672;50.834;6.286;2022-10-16T07:31:27;5.10;;;1.47;;
15142;SDS011;7672;50.834;6.286;2022-10-16T07:33:54;6.60;;;1.80;;
15142;SDS011;7672;50.834;6.286;2022-10-16T07:36:21;7.40;;;2.10;;
15142;SDS011;7672;50.834;6.286;2022-10-16T07:38:48;5.80;;;2.60;;
15142;SDS011;7672;50.834;6.286;2022-10-16T07:41:19;2.67;;;2.47;;
15142;SDS011;7672;50.834;6.286;2022-10-16T07:43:50;4.60;;;1.90;;
15142;SDS011;7672;50.834;6.286;2022-10-16T07:46:19;2.70;;;1.90;;
15142;SDS011;7672;50.834;6.286;2022-10-16T07:48:48;2.03;;;1.73;;
15142;SDS011;7672;50.834;6.286;2022-10-16T07:51:16;1.70;;;1.60;;
15142;SDS011;7672;50.834;6.286;2022-10-16T07:53:45;1.73;;;1.30;;
15142;SDS011;7672;50.834;6.286;2022-10-16T07:56:13;1.73;;;1.20;;
15142;SDS011;7672;50.834;6.286;2022-10-16T07:58:42;2.03;;;1.20;;
15142;SDS011;7672;50.834;6.286;2022-10-16T08:01:10;1.27;;;1.00;;
15142;SDS011;7672;50.834;6.286;2022-10-16T08:03:44;3.17;;;1.50;;
15142;SDS011;7672;50.834;6.286;2022-10-16T08:06:13;2.08;;;1.40;;
15142;SDS011;7672;50.834;6.286;2022-10-16T08:08:40;1.75;;;1.20;;
15142;SDS011;7672;50.834;6.286;2022-10-16T08:11:07;2.70;;;1.30;;
15142;SDS011;7672;50.834;6.286;2022-10-16T08:13:34;1.85;;;1.27;;
15142;SDS011;7672;50.834;6.286;2022-10-16T08:16:02;1.15;;;1.10;;
15142;SDS011;7672;50.834;6.286;2022-10-16T08:18:34;1.38;;;1.20;;
15142;SDS011;7672;50.834;6.286;2022-10-16T08:21:02;4.15;;;1.30;;
15142;SDS011;7672;50.834;6.286;2022-10-16T08:23:30;1.33;;;1.23;;
15142;SDS011;7672;50.834;6.286;2022-10-16T08:26:01;2.97;;;1.77;;
15142;SDS011;7672;50.834;6.286;2022-10-16T08:28:32;1.67;;;1.50;;
15142;SDS011;7672;50.834;6.286;2022-10-16T08:31:33;3.00;;;1.33;;
15142;SDS011;7672;50.834;6.286;2022-10-16T08:33:53;2.05;;;1.42;;
15142;SDS011;7672;50.834;6.286;2022-10-16T08:36:20;1.50;;;1.40;;
15142;SDS011;7672;50.834;6.286;2022-10-16T08:38:47;2.55;;;1.83;;
15142;SDS011;7672;50.834;6.286;2022-10-16T08:41:26;1.20;;;1.00;;
15142;SDS011;7672;50.834;6.286;2022-10-16T08:47:41;1.27;;;1.17;;
15142;SDS011;7672;50.834;6.286;2022-10-16T08:50:22;1.75;;;1.10;;
15142;SDS011;7672;50.834;6.286;2022-10-16T08:52:56;1.27;;;1.10;;
15142;SDS011;7672;50.834;6.286;2022-10-16T08:55:28;1.75;;;1.08;;
15142;SDS011;7672;50.834;6.286;2022-10-16T08:58:14;1.48;;;1.08;;
15142;SDS011;7672;50.834;6.286;2022-10-16T09:00:50;1.60;;;1.05;;
15142;SDS011;7672;50.834;6.286;2022-10-16T09:06:08;1.35;;;1.15;;
15142;SDS011;7672;50.834;6.286;2022-10-16T09:14:30;1.55;;;1.10;;
15142;SDS011;7672;50.834;6.286;2022-10-16T09:19:55;1.50;;;0.90;;
15142;SDS011;7672;50.834;6.286;2022-10-16T09:25:31;1.25;;;0.80;;
15142;SDS011;7672;50.834;6.286;2022-10-16T09:28:00;2.38;;;0.85;;
15142;SDS011;7672;50.834;6.286;2022-10-16T09:30:28;1.52;;;1.05;;
15142;SDS011;7672;50.834;6.286;2022-10-16T09:32:57;1.48;;;0.85;;
15142;SDS011;7672;50.834;6.286;2022-10-16T09:35:32;1.75;;;1.00;;
15142;SDS011;7672;50.834;6.286;2022-10-16T09:38:05;1.27;;;0.82;;
15142;SDS011;7672;50.834;6.286;2022-10-16T09:43:12;1.15;;;0.90;;
15142;SDS011;7672;50.834;6.286;2022-10-16T09:46:01;1.52;;;0.98;;
15142;SDS011;7672;50.834;6.286;2022-10-16T09:48:33;1.77;;;1.02;;
15142;SDS011;7672;50.834;6.286;2022-10-16T09:51:06;1.20;;;0.85;;
15142;SDS011;7672;50.834;6.286;2022-10-16T09:53:46;1.00;;;0.65;;
15142;SDS011;7672;50.834;6.286;2022-10-16T09:56:32;1.70;;;0.80;;
15142;SDS011;7672;50.834;6.286;2022-10-16T09:59:12;1.02;;;0.80;;
15142;SDS011;7672;50.834;6.286;2022-10-16T10:01:45;1.95;;;1.20;;
15142;SDS011;7672;50.834;6.286;2022-10-16T10:04:18;1.20;;;0.73;;
15142;SDS011;7672;50.834;6.286;2022-10-16T10:06:49;0.93;;;0.80;;
15142;SDS011;7672;50.834;6.286;2022-10-16T10:09:32;3.20;;;0.90;;
15142;SDS011;7672;50.834;6.286;2022-10-16T10:12:05;0.60;;;0.60;;
15142;SDS011;7672;50.834;6.286;2022-10-16T10:14:52;0.88;;;0.80;;
15142;SDS011;7672;50.834;6.286;2022-10-16T10:17:27;1.25;;;0.95;;
15142;SDS011;7672;50.834;6.286;2022-10-16T10:20:14;2.17;;;1.10;;
15142;SDS011;7672;50.834;6.286;2022-10-16T10:23:01;1.27;;;0.70;;
15142;SDS011;7672;50.834;6.286;2022-10-16T10:25:56;1.58;;;1.17;;
15142;SDS011;7672;50.834;6.286;2022-10-16T10:36:40;0.95;;;0.88;;
15142;SDS011;7672;50.834;6.286;2022-10-16T10:39:15;3.63;;;0.98;;
15142;SDS011;7672;50.834;6.286;2022-10-16T10:50:54;1.65;;;0.98;;
15142;SDS011;7672;50.834;6.286;2022-10-16T10:53:40;1.55;;;1.08;;
15142;SDS011;7672;50.834;6.286;2022-10-16T10:56:46;1.02;;;0.93;;
15142;SDS011;7672;50.834;6.286;2022-10-16T11:05:26;1.67;;;1.40;;
15142;SDS011;7672;50.834;6.286;2022-10-16T11:08:27;2.25;;;1.10;;
15142;SDS011;7672;50.834;6.286;2022-10-16T11:11:03;1.20;;;0.95;;
15142;SDS011;7672;50.834;6.286;2022-10-16T11:16:39;1.17;;;0.82;;
15142;SDS011;7672;50.834;6.286;2022-10-16T11:19:40;2.08;;;1.30;;
15142;SDS011;7672;50.834;6.286;2022-10-16T11:22:21;1.67;;;1.33;;
15142;SDS011;7672;50.834;6.286;2022-10-16T11:33:22;1.30;;;0.80;;
15142;SDS011;7672;50.834;6.286;2022-10-16T11:36:06;2.35;;;1.10;;
15142;SDS011;7672;50.834;6.286;2022-10-16T11:41:45;1.42;;;0.90;;
15142;SDS011;7672;50.834;6.286;2022-10-16T11:44:41;1.17;;;0.88;;
15142;SDS011;7672;50.834;6.286;2022-10-16T11:50:17;1.52;;;1.00;;
15142;SDS011;7672;50.834;6.286;2022-10-16T11:56:05;2.85;;;1.20;;
15142;SDS011;7672;50.834;6.286;2022-10-16T12:01:50;1.98;;;1.42;;
15142;SDS011;7672;50.834;6.286;2022-10-16T12:07:55;3.05;;;0.90;;
15142;SDS011;7672;50.834;6.286;2022-10-16T12:10:30;2.65;;;1.33;;
15142;SDS011;7672;50.834;6.286;2022-10-16T12:13:04;1.52;;;1.10;;
15142;SDS011;7672;50.834;6.286;2022-10-16T12:18:38;1.23;;;1.00;;
15142;SDS011;7672;50.834;6.286;2022-10-16T12:21:08;1.80;;;1.10;;
15142;SDS011;7672;50.834;6.286;2022-10-16T12:23:37;1.80;;;1.20;;
15142;SDS011;7672;50.834;6.286;2022-10-16T12:26:26;3.38;;;1.10;;
15142;SDS011;7672;50.834;6.286;2022-10-16T12:35:22;1.73;;;1.63;;
15142;SDS011;7672;50.834;6.286;2022-10-16T12:37:54;1.50;;;1.17;;
15142;SDS011;7672;50.834;6.286;2022-10-16T12:40:41;1.52;;;1.23;;
15142;SDS011;7672;50.834;6.286;2022-10-16T12:43:58;2.55;;;0.90;;
15142;SDS011;7672;50.834;6.286;2022-10-16T12:48:35;0.90;;;0.70;;
15142;SDS011;7672;50.834;6.286;2022-10-16T13:11:35;3.47;;;1.00;;
15142;SDS011;7672;50.834;6.286;2022-10-16T13:28:22;1.83;;;1.10;;
15142;SDS011;7672;50.834;6.286;2022-10-16T13:30:59;1.95;;;0.77;;
15142;SDS011;7672;50.834;6.286;2022-10-16T13:36:04;1.00;;;0.77;;
15142;SDS011;7672;50.834;6.286;2022-10-16T13:38:35;1.95;;;0.90;;
15142;SDS011;7672;50.834;6.286;2022-10-16T13:41:03;2.88;;;0.95;;
15142;SDS011;7672;50.834;6.286;2022-10-16T13:43:40;1.70;;;0.85;;
15142;SDS011;7672;50.834;6.286;2022-10-16T13:46:20;0.93;;;0.90;;
15142;SDS011;7672;50.834;6.286;2022-10-16T13:51:32;1.15;;;0.90;;
15142;SDS011;7672;50.834;6.286;2022-10-16T13:53:59;2.85;;;0.85;;
15142;SDS011;7672;50.834;6.286;2022-10-16T13:56:27;2.60;;;0.90;;
15142;SDS011;7672;50.834;6.286;2022-10-16T13:59:04;1.17;;;0.80;;
15142;SDS011;7672;50.834;6.286;2022-10-16T14:01:59;1.02;;;0.70;;
15142;SDS011;7672;50.834;6.286;2022-10-16T14:04:40;4.15;;;0.80;;
15142;SDS011;7672;50.834;6.286;2022-10-16T14:07:12;2.00;;;1.10;;
15142;SDS011;7672;50.834;6.286;2022-10-16T14:10:02;2.15;;;0.80;;
15142;SDS011;7672;50.834;6.286;2022-10-16T14:12:33;3.50;;;0.90;;
15142;SDS011;7672;50.834;6.286;2022-10-16T14:15:01;1.88;;;0.85;;
15142;SDS011;7672;50.834;6.286;2022-10-16T14:17:29;1.38;;;0.85;;
15142;SDS011;7672;50.834;6.286;2022-10-16T14:20:03;1.08;;;0.82;;
15142;SDS011;7672;50.834;6.286;2022-10-16T14:22:36;1.38;;;0.70;;
15142;SDS011;7672;50.834;6.286;2022-10-16T14:27:55;0.73;;;0.65;;
15142;SDS011;7672;50.834;6.286;2022-10-16T14:30:57;1.08;;;0.82;;
15142;SDS011;7672;50.834;6.286;2022-10-16T14:36:00;0.63;;;0.63;;
15142;SDS011;7672;50.834;6.286;2022-10-16T14:38:37;1.15;;;0.75;;
15142;SDS011;7672;50.834;6.286;2022-10-16T14:41:14;0.60;;;0.60;;
15142;SDS011;7672;50.834;6.286;2022-10-16T14:43:42;0.85;;;0.70;;
15142;SDS011;7672;50.834;6.286;2022-10-16T14:46:17;1.40;;;0.80;;
15142;SDS011;7672;50.834;6.286;2022-10-16T14:49:15;1.10;;;0.80;;
15142;SDS011;7672;50.834;6.286;2022-10-16T14:51:46;4.47;;;0.70;;
15142;SDS011;7672;50.834;6.286;2022-10-16T14:54:15;2.95;;;0.85;;
15142;SDS011;7672;50.834;6.286;2022-10-16T14:56:47;0.73;;;0.60;;
15142;SDS011;7672;50.834;6.286;2022-10-16T14:59:19;2.15;;;0.70;;
15142;SDS011;7672;50.834;6.286;2022-10-16T15:02:06;0.85;;;0.85;;
15142;SDS011;7672;50.834;6.286;2022-10-16T15:05:13;1.65;;;0.60;;
15142;SDS011;7672;50.834;6.286;2022-10-16T15:07:50;1.92;;;0.70;;
15142;SDS011;7672;50.834;6.286;2022-10-16T15:10:21;0.85;;;0.68;;
15142;SDS011;7672;50.834;6.286;2022-10-16T15:12:50;1.63;;;0.80;;
15142;SDS011;7672;50.834;6.286;2022-10-16T15:15:32;3.13;;;0.82;;
15142;SDS011;7672;50.834;6.286;2022-10-16T15:18:04;2.17;;;0.70;;
15142;SDS011;7672;50.834;6.286;2022-10-16T15:20:32;1.08;;;0.70;;
15142;SDS011;7672;50.834;6.286;2022-10-16T15:23:02;0.90;;;0.70;;
15142;SDS011;7672;50.834;6.286;2022-10-16T15:25:37;0.95;;;0.80;;
15142;SDS011;7672;50.834;6.286;2022-10-16T15:28:12;3.50;;;0.73;;
15142;SDS011;7672;50.834;6.286;2022-10-16T15:30:40;3.78;;;1.13;;
15142;SDS011;7672;50.834;6.286;2022-10-16T15:33:11;0.90;;;0.70;;
15142;SDS011;7672;50.834;6.286;2022-10-16T15:35:42;1.50;;;0.93;;
15142;SDS011;7672;50.834;6.286;2022-10-16T15:38:14;1.25;;;0.80;;
15142;SDS011;7672;50.834;6.286;2022-10-16T15:40:42;0.70;;;0.70;;
15142;SDS011;7672;50.834;6.286;2022-10-16T15:43:09;1.00;;;0.70;;
15142;SDS011;7672;50.834;6.286;2022-10-16T15:45:36;1.92;;;0.70;;
15142;SDS011;7672;50.834;6.286;2022-10-16T15:48:03;1.95;;;0.90;;
15142;SDS011;7672;50.834;6.286;2022-10-16T15:50:31;1.30;;;0.68;;
15142;SDS011;7672;50.834;6.286;2022-10-16T15:53:00;3.05;;;0.90;;
15142;SDS011;7672;50.834;6.286;2022-10-16T15:55:26;1.23;;;0.70;;
15142;SDS011;7672;50.834;6.286;2022-10-16T15:57:53;0.90;;;0.80;;
15142;SDS011;7672;50.834;6.286;2022-10-16T16:00:20;1.77;;;0.90;;
15142;SDS011;7672;50.834;6.286;2022-10-16T16:02:51;1.90;;;0.85;;
15142;SDS011;7672;50.834;6.286;2022-10-16T16:05:20;1.15;;;0.85;;
15142;SDS011;7672;50.834;6.286;2022-10-16T16:07:48;2.85;;;0.90;;
15142;SDS011;7672;50.834;6.286;2022-10-16T16:10:16;1.55;;;0.88;;
15142;SDS011;7672;50.834;6.286;2022-10-16T16:12:45;1.15;;;0.88;;
15142;SDS011;7672;50.834;6.286;2022-10-16T16:15:21;1.73;;;0.95;;
15142;SDS011;7672;50.834;6.286;2022-10-16T16:17:49;1.05;;;0.80;;
15142;SDS011;7672;50.834;6.286;2022-10-16T16:20:16;1.17;;;0.98;;
15142;SDS011;7672;50.834;6.286;2022-10-16T16:22:43;1.48;;;1.00;;
15142;SDS011;7672;50.834;6.286;2022-10-16T16:25:10;1.55;;;1.00;;
15142;SDS011;7672;50.834;6.286;2022-10-16T16:27:36;0.77;;;0.73;;
15142;SDS011;7672;50.834;6.286;2022-10-16T16:30:09;1.17;;;0.90;;
15142;SDS011;7672;50.834;6.286;2022-10-16T16:32:44;1.88;;;1.00;;
15142;SDS011;7672;50.834;6.286;2022-10-16T16:35:11;2.08;;;0.95;;
15142;SDS011;7672;50.834;6.286;2022-10-16T16:37:38;0.80;;;0.80;;
15142;SDS011;7672;50.834;6.286;2022-10-16T16:40:05;2.05;;;0.90;;
15142;SDS011;7672;50.834;6.286;2022-10-16T16:42:32;1.10;;;1.00;;
15142;SDS011;7672;50.834;6.286;2022-10-16T16:44:59;3.50;;;1.00;;
15142;SDS011;7672;50.834;6.286;2022-10-16T16:47:25;0.90;;;0.90;;
15142;SDS011;7672;50.834;6.286;2022-10-16T16:49:53;0.80;;;0.80;;
15142;SDS011;7672;50.834;6.286;2022-10-16T16:52:19;1.03;;;1.00;;
15142;SDS011;7672;50.834;6.286;2022-10-16T16:54:47;1.00;;;0.90;;
15142;SDS011;7672;50.834;6.286;2022-10-16T16:57:18;0.80;;;0.80;;
15142;SDS011;7672;50.834;6.286;2022-10-16T16:59:46;2.47;;;0.90;;
15142;SDS011;7672;50.834;6.286;2022-10-16T17:02:16;2.67;;;0.97;;
15142;SDS011;7672;50.834;6.286;2022-10-16T17:04:43;2.27;;;1.07;;
15142;SDS011;7672;50.834;6.286;2022-10-16T17:07:10;2.87;;;1.57;;
15142;SDS011;7672;50.834;6.286;2022-10-16T17:09:36;3.17;;;1.47;;
15142;SDS011;7672;50.834;6.286;2022-10-16T17:12:03;1.40;;;1.17;;
15142;SDS011;7672;50.834;6.286;2022-10-16T17:14:30;2.57;;;1.00;;
15142;SDS011;7672;50.834;6.286;2022-10-16T17:16:58;2.30;;;1.17;;
15142;SDS011;7672;50.834;6.286;2022-10-16T17:19:24;2.17;;;1.13;;
15142;SDS011;7672;50.834;6.286;2022-10-16T17:21:51;2.63;;;1.57;;
15142;SDS011;7672;50.834;6.286;2022-10-16T17:24:18;1.33;;;1.03;;
15142;SDS011;7672;50.834;6.286;2022-10-16T17:26:46;3.00;;;1.00;;
15142;SDS011;7672;50.834;6.286;2022-10-16T17:29:15;2.03;;;1.37;;
15142;SDS011;7672;50.834;6.286;2022-10-16T17:31:43;1.60;;;1.30;;
15142;SDS011;7672;50.834;6.286;2022-10-16T17:34:11;2.03;;;1.40;;
15142;SDS011;7672;50.834;6.286;2022-10-16T17:36:39;1.20;;;1.10;;
15142;SDS011;7672;50.834;6.286;2022-10-16T17:39:12;1.47;;;1.27;;
15142;SDS011;7672;50.834;6.286;2022-10-16T17:41:43;1.47;;;1.37;;
15142;SDS011;7672;50.834;6.286;2022-10-16T17:44:11;2.80;;;1.33;;
15142;SDS011;7672;50.834;6.286;2022-10-16T17:46:52;2.27;;;1.40;;
15142;SDS011;7672;50.834;6.286;2022-10-16T17:49:19;2.37;;;1.60;;
15142;SDS011;7672;50.834;6.286;2022-10-16T17:51:50;1.87;;;1.50;;
15142;SDS011;7672;50.834;6.286;2022-10-16T17:54:19;3.70;;;1.77;;
15142;SDS011;7672;50.834;6.286;2022-10-16T17:56:46;1.70;;;1.50;;